Privateer IV — WDG3800 — position and weather

sailwx.info

Track history (hours):
 
Tides and Currents Weather Stations Pressure Air Temp Water Temp Dewpoint Dewpoint Depression Visibility Wind Speed Wind Dir Waves Ship Positions

Privateer IV

Owner: 7 Seas Whale Watch, Gloucester, MA. More information available from US FCC via Universal Licensing System and Coast Guard Vessel Documentation Center.

Last reported at 2018-Jul-21 09:00 UTC. Time now 2018-Jul-21 09:10 UTC.
Position N 42°37' W 070°40'.

Length 30 m.

Type: Ship. MMSI: 367529770.

Date/timePositionNaut miles runAvg speedWind from/ knotsBaromVisibWave heightAir tempDewpointWater temp
2018-Jul-21 09:00N 42°37' W 070°40'0 0.0
2018-Jul-21 08:30N 42°37' W 070°40'0 0.0
2018-Jul-21 08:00N 42°37' W 070°40'0 0.0
2018-Jul-21 07:30N 42°37' W 070°40'0 0.0
2018-Jul-21 07:00N 42°37' W 070°40'0 0.0
2018-Jul-21 06:30N 42°37' W 070°40'0 0.0
2018-Jul-21 06:00N 42°37' W 070°40'0 0.0
2018-Jul-21 05:30N 42°37' W 070°40'0 0.0
2018-Jul-21 05:00N 42°37' W 070°40'0 0.0
2018-Jul-21 04:30N 42°37' W 070°40'0 0.0
2018-Jul-21 04:00N 42°37' W 070°40'0 0.0
2018-Jul-21 03:30N 42°37' W 070°40'0 0.0
2018-Jul-21 03:00N 42°37' W 070°40'0 0.0
2018-Jul-21 02:30N 42°37' W 070°40'0 0.0
2018-Jul-21 02:00N 42°37' W 070°40'0 0.0
2018-Jul-21 01:30N 42°37' W 070°40'0 0.0
2018-Jul-21 01:00N 42°37' W 070°40'0 0.0
2018-Jul-21 00:30N 42°37' W 070°40'0 0.0
2018-Jul-21 00:00N 42°37' W 070°40'0 0.0
2018-Jul-20 23:30N 42°37' W 070°40'0 0.0
2018-Jul-20 23:00N 42°37' W 070°40'0 0.0
2018-Jul-20 22:30N 42°37' W 070°40'0 0.0
2018-Jul-20 22:00N 42°37' W 070°40'0 0.0
2018-Jul-20 21:30N 42°37' W 070°40'0 0.3
2018-Jul-20 21:00N 42°37' W 070°40'4 8.3
2018-Jul-20 20:31N 42°38' W 070°34'816.9
2018-Jul-20 20:00N 42°45' W 070°40'3 5.4
2018-Jul-20 19:30N 42°48' W 070°42'0 0.9
2018-Jul-20 19:00N 42°48' W 070°41'2 4.7
2018-Jul-20 18:30N 42°46' W 070°40'917.3
2018-Jul-20 18:00N 42°38' W 070°34'4 8.6
2018-Jul-20 17:30N 42°37' W 070°40'0 0.1
2018-Jul-20 17:00N 42°37' W 070°40'0 0.0
2018-Jul-20 16:30N 42°37' W 070°40'0 0.0
2018-Jul-20 16:00N 42°37' W 070°40'2 4.5
2018-Jul-20 15:31N 42°34' W 070°39'713.8
2018-Jul-20 15:01N 42°41' W 070°36'611.6
2018-Jul-20 14:31N 42°46' W 070°40'1 1.3
2018-Jul-20 14:00N 42°47' W 070°41'3 5.6
2018-Jul-20 13:30N 42°46' W 070°37'816.4
2018-Jul-20 13:00N 42°38' W 070°34'4 8.7
2018-Jul-20 12:30N 42°37' W 070°40'0 0.1
2018-Jul-20 12:00N 42°37' W 070°40'0 0.0
2018-Jul-20 11:30N 42°37' W 070°40'0 0.0
2018-Jul-20 11:00N 42°37' W 070°40'0 0.0
2018-Jul-20 10:30N 42°37' W 070°40'0 0.0
2018-Jul-20 10:00N 42°37' W 070°40'0 0.0
2018-Jul-20 09:30N 42°37' W 070°40'0 0.0
2018-Jul-20 09:00N 42°37' W 070°40'0 0.0
2018-Jul-20 08:30N 42°37' W 070°40'0 0.0
2018-Jul-20 08:00N 42°37' W 070°40'0 0.0
2018-Jul-20 07:30N 42°37' W 070°40'0 0.0
2018-Jul-20 07:00N 42°37' W 070°40'0 0.0
2018-Jul-20 06:30N 42°37' W 070°40'0 0.0
2018-Jul-20 06:00N 42°37' W 070°40'0 0.0
2018-Jul-20 05:30N 42°37' W 070°40'0 0.0
2018-Jul-20 05:00N 42°37' W 070°40'0 0.0
2018-Jul-20 04:30N 42°37' W 070°40'0 0.0
2018-Jul-20 04:00N 42°37' W 070°40'0 0.0
2018-Jul-20 03:30N 42°37' W 070°40'0 0.0
2018-Jul-20 03:00N 42°37' W 070°40'0 0.0
2018-Jul-20 02:30N 42°37' W 070°40'0 0.0
2018-Jul-20 02:00N 42°37' W 070°40'0 0.0
2018-Jul-20 01:30N 42°37' W 070°40'0 0.0
2018-Jul-20 01:00N 42°37' W 070°40'0 0.0
2018-Jul-20 00:30N 42°37' W 070°40'0 0.0
2018-Jul-20 00:00N 42°37' W 070°40'0 0.0
2018-Jul-19 23:30N 42°37' W 070°40'0 0.0
2018-Jul-19 23:00N 42°37' W 070°40'0 0.0
2018-Jul-19 22:30N 42°37' W 070°40'0 0.0
2018-Jul-19 22:00N 42°37' W 070°40'0 0.0
2018-Jul-19 21:30N 42°37' W 070°40'1 2.3
2018-Jul-19 21:01N 42°36' W 070°41'611.6
2018-Jul-19 20:31N 42°40' W 070°35'917.3
2018-Jul-19 20:01N 42°48' W 070°39'4 8.0
2018-Jul-19 19:30N 42°52' W 070°41'0 0.1
2018-Jul-19 19:00N 42°52' W 070°41'612.2
2018-Jul-19 18:30N 42°46' W 070°39'917.4
2018-Jul-19 18:00N 42°38' W 070°34'4 8.4
2018-Jul-19 17:30N 42°37' W 070°40'0 0.1
2018-Jul-19 17:00N 42°37' W 070°40'1 2.5
2018-Jul-19 16:30N 42°36' W 070°40'611.8
2018-Jul-19 16:00N 42°40' W 070°35'918.4
2018-Jul-19 15:30N 42°49' W 070°40'3 5.6
2018-Jul-19 15:00N 42°51' W 070°41'2 3.4
2018-Jul-19 14:31N 42°51' W 070°39'8 8.2
2018-Jul-19 13:30N 42°44' W 070°34'511.0
2018-Jul-19 13:01N 42°38' W 070°34'5 9.1
2018-Jul-19 12:30N 42°37' W 070°40'0 0.1
2018-Jul-19 12:00N 42°37' W 070°40'0 0.0
2018-Jul-19 11:30N 42°37' W 070°40'0 0.0
2018-Jul-19 11:00N 42°37' W 070°40'0 0.0
2018-Jul-19 10:30N 42°37' W 070°40'0 0.0
2018-Jul-19 10:00N 42°37' W 070°40'0 0.0
2018-Jul-19 09:30N 42°37' W 070°40'0 0.0
2018-Jul-19 09:00N 42°37' W 070°40'0 0.0
2018-Jul-19 08:30N 42°37' W 070°40'0 0.0
2018-Jul-19 08:01N 42°37' W 070°40'0 0.0
2018-Jul-19 07:30N 42°37' W 070°40'0 0.0
2018-Jul-19 07:00N 42°37' W 070°40'0 0.0
2018-Jul-19 06:30N 42°37' W 070°40'0 0.0
2018-Jul-19 06:01N 42°37' W 070°40'0 0.0
2018-Jul-19 05:30N 42°37' W 070°40'0 0.0
2018-Jul-19 05:00N 42°37' W 070°40'0 0.0
2018-Jul-19 04:30N 42°37' W 070°40'0 0.0
2018-Jul-19 04:01N 42°37' W 070°40'0 0.0
2018-Jul-19 03:30N 42°37' W 070°40'0 0.0
2018-Jul-19 03:00N 42°37' W 070°40'0 0.0
2018-Jul-19 02:30N 42°37' W 070°40'0 0.0
2018-Jul-19 02:00N 42°37' W 070°40'0 0.0
2018-Jul-19 01:30N 42°37' W 070°40'0 0.0
2018-Jul-19 01:01N 42°37' W 070°40'0 0.0
2018-Jul-19 00:30N 42°37' W 070°40'0 0.0
2018-Jul-19 00:00N 42°37' W 070°40'0 0.0
2018-Jul-18 23:30N 42°37' W 070°40'0 0.0
2018-Jul-18 23:01N 42°37' W 070°40'0 0.0
2018-Jul-18 22:30N 42°37' W 070°40'0 0.0
2018-Jul-18 22:00N 42°37' W 070°40'0 0.0
2018-Jul-18 21:30N 42°37' W 070°40'0 0.0
2018-Jul-18 21:00N 42°37' W 070°40'1 2.0
2018-Jul-18 20:30N 42°36' W 070°40'713.1
2018-Jul-18 20:00N 42°38' W 070°32'611.8
2018-Jul-18 19:30N 42°44' W 070°31'4 7.1
2018-Jul-18 19:00N 42°43' W 070°36'0 0.1
2018-Jul-18 18:30N 42°43' W 070°36'510.1
2018-Jul-18 18:00N 42°39' W 070°34'5 9.5
2018-Jul-18 17:30N 42°36' W 070°40'0 0.4
2018-Jul-18 17:00N 42°37' W 070°40'0 0.0
2018-Jul-18 16:30N 42°37' W 070°40'0 0.0
2018-Jul-18 16:00N 42°37' W 070°40'2 4.2
2018-Jul-18 15:30N 42°35' W 070°40'916.9
2018-Jul-18 15:00N 42°39' W 070°30'5 9.9
2018-Jul-18 14:30N 42°43' W 070°34'3 3.1
2018-Jul-18 13:30N 42°45' W 070°38'714.3
2018-Jul-18 13:00N 42°38' W 070°34'4 8.4
2018-Jul-18 12:30N 42°37' W 070°40'0 0.0
2018-Jul-18 12:00N 42°37' W 070°40'0 0.0
2018-Jul-18 11:30N 42°37' W 070°40'0 0.0
2018-Jul-18 10:30N 42°37' W 070°40'0 0.0
2018-Jul-18 10:00N 42°37' W 070°40'0 0.0
2018-Jul-18 09:30N 42°37' W 070°40'0 0.0
2018-Jul-18 09:00N 42°37' W 070°40'0 0.0
2018-Jul-18 08:30N 42°37' W 070°40'0 0.0
2018-Jul-18 08:00N 42°37' W 070°40'0 0.0
2018-Jul-18 07:30N 42°37' W 070°40'0 0.0
2018-Jul-18 07:00N 42°37' W 070°40'0 0.0
2018-Jul-18 06:30N 42°37' W 070°40'0 0.0
2018-Jul-18 06:00N 42°37' W 070°40'0 0.0
2018-Jul-18 05:30N 42°37' W 070°40'0 0.0
2018-Jul-18 05:00N 42°37' W 070°40'0 0.0
2018-Jul-18 04:30N 42°37' W 070°40'0 0.0
2018-Jul-18 04:00N 42°37' W 070°40'0 0.0
2018-Jul-18 03:30N 42°37' W 070°40'0 0.0
2018-Jul-18 03:00N 42°37' W 070°40'0 0.0
2018-Jul-18 02:30N 42°37' W 070°40'0 0.0
2018-Jul-18 02:00N 42°37' W 070°40'0 0.0
2018-Jul-18 01:30N 42°37' W 070°40'0 0.0
2018-Jul-18 01:00N 42°37' W 070°40'0 0.0
2018-Jul-18 00:30N 42°37' W 070°40'0 0.0
2018-Jul-18 00:00N 42°37' W 070°40'0 0.0
2018-Jul-17 23:30N 42°37' W 070°40'0 0.0
2018-Jul-17 23:00N 42°37' W 070°40'0 0.0
2018-Jul-17 22:30N 42°37' W 070°40'0 0.0
2018-Jul-17 22:00N 42°37' W 070°40'0 0.0
2018-Jul-17 21:30N 42°37' W 070°40'0 0.0
2018-Jul-17 21:00N 42°37' W 070°40'0 0.0
2018-Jul-17 20:30N 42°37' W 070°40'0 0.0
2018-Jul-17 20:00N 42°37' W 070°40'0 0.0
2018-Jul-17 19:30N 42°37' W 070°40'0 0.0
2018-Jul-17 19:00N 42°37' W 070°40'0 0.0
2018-Jul-17 18:30N 42°37' W 070°40'0 0.0
2018-Jul-17 17:59N 42°37' W 070°40'0 0.0
2018-Jul-17 17:30N 42°37' W 070°40'0 0.0
2018-Jul-17 17:00N 42°37' W 070°40'0 0.0
2018-Jul-17 16:30N 42°37' W 070°40'0 0.0
2018-Jul-17 16:01N 42°37' W 070°40'0 0.0
2018-Jul-17 15:30N 42°37' W 070°40'0 0.0
2018-Jul-17 15:00N 42°37' W 070°40'0 0.0
2018-Jul-17 14:30N 42°37' W 070°40'0 0.0
2018-Jul-17 14:00N 42°37' W 070°40'0 0.0
2018-Jul-17 13:30N 42°37' W 070°40'0 0.0
2018-Jul-17 13:00N 42°37' W 070°40'0 0.0
2018-Jul-17 12:30N 42°37' W 070°40'0 0.0
2018-Jul-17 12:00N 42°37' W 070°40'0 0.0
2018-Jul-17 11:30N 42°37' W 070°40'0 0.0
2018-Jul-17 11:00N 42°37' W 070°40'0 0.0
2018-Jul-17 10:30N 42°37' W 070°40'0 0.0
2018-Jul-17 10:01N 42°37' W 070°40'0 0.0
2018-Jul-17 09:30N 42°37' W 070°40'0 0.0
2018-Jul-17 09:00N 42°37' W 070°40'0 0.0
2018-Jul-17 08:30N 42°37' W 070°40'0 0.0
2018-Jul-17 08:00N 42°37' W 070°40'0 0.0
2018-Jul-17 07:30N 42°37' W 070°40'0 0.0
2018-Jul-17 07:00N 42°37' W 070°40'0 0.0
2018-Jul-17 06:28N 42°37' W 070°40'0 0.0
2018-Jul-17 06:00N 42°37' W 070°40'0 0.0
2018-Jul-17 05:30N 42°37' W 070°40'0 0.0
2018-Jul-17 05:00N 42°37' W 070°40'0 0.0
2018-Jul-17 04:30N 42°37' W 070°40'0 0.0
2018-Jul-17 04:00N 42°37' W 070°40'0 0.0
2018-Jul-17 03:30N 42°37' W 070°40'0 0.0
2018-Jul-17 03:00N 42°37' W 070°40'0 0.0
2018-Jul-17 02:30N 42°37' W 070°40'0 0.0
2018-Jul-17 02:00N 42°37' W 070°40'0 0.0
2018-Jul-17 01:30N 42°37' W 070°40'0 0.0
2018-Jul-17 01:00N 42°37' W 070°40'0 0.0
2018-Jul-17 00:30N 42°37' W 070°40'0 0.0
2018-Jul-16 23:30N 42°37' W 070°40'0 0.0
2018-Jul-16 23:01N 42°37' W 070°40'0 0.0
2018-Jul-16 22:30N 42°37' W 070°40'0 0.0
2018-Jul-16 22:00N 42°37' W 070°40'0 0.0
2018-Jul-16 21:30N 42°37' W 070°40'2 3.6
2018-Jul-16 21:00N 42°36' W 070°38'815.3
2018-Jul-16 20:30N 42°43' W 070°35'917.2
2018-Jul-16 20:00N 42°50' W 070°42'0 0.6
2018-Jul-16 19:30N 42°50' W 070°42'1 2.8
2018-Jul-16 19:00N 42°49' W 070°42'917.2
2018-Jul-16 18:30N 42°41' W 070°36'713.3
2018-Jul-16 18:00N 42°35' W 070°39'2 3.9
2018-Jul-16 17:30N 42°37' W 070°40'4 9.0
2018-Jul-16 17:00N 42°38' W 070°34'917.7
2018-Jul-16 16:30N 42°46' W 070°41'2 4.2
2018-Jul-16 16:00N 42°47' W 070°43'2 3.2
2018-Jul-16 15:31N 42°46' W 070°41'815.6
2018-Jul-16 15:00N 42°43' W 070°31'4 7.1
2018-Jul-16 14:30N 42°46' W 070°28'4 8.6
2018-Jul-16 14:00N 42°48' W 070°33'714.9
2018-Jul-16 13:30N 42°41' W 070°28'815.1
2018-Jul-16 13:00N 42°35' W 070°34'4 8.9
2018-Jul-16 12:30N 42°37' W 070°40'0 0.0
2018-Jul-16 12:01N 42°37' W 070°40'0 0.0
2018-Jul-16 11:30N 42°37' W 070°40'0 0.0
2018-Jul-16 11:01N 42°37' W 070°40'0 0.0
2018-Jul-16 10:31N 42°37' W 070°40'0 0.0
2018-Jul-16 10:01N 42°37' W 070°40'0 0.0
2018-Jul-16 09:30N 42°37' W 070°40'0 0.0
2018-Jul-16 09:00N 42°37' W 070°40'0 0.0
2018-Jul-16 08:31N 42°37' W 070°40'0 0.0
2018-Jul-16 08:00N 42°37' W 070°40'0 0.0
2018-Jul-16 07:30N 42°37' W 070°40'0 0.0
2018-Jul-16 07:00N 42°37' W 070°40'0 0.0
2018-Jul-16 06:30N 42°37' W 070°40'0 0.0
2018-Jul-16 06:00N 42°37' W 070°40'0 0.0
2018-Jul-16 05:29N 42°37' W 070°40'0 0.0
2018-Jul-16 04:59N 42°37' W 070°40'0 0.0
2018-Jul-16 04:30N 42°37' W 070°40'0 0.0
2018-Jul-16 04:00N 42°37' W 070°40'0 0.0
2018-Jul-16 03:31N 42°37' W 070°40'0 0.0
2018-Jul-16 03:01N 42°37' W 070°40'0 0.0
2018-Jul-16 02:30N 42°37' W 070°40'0 0.0
2018-Jul-16 02:00N 42°37' W 070°40'0 0.0
2018-Jul-16 01:30N 42°37' W 070°40'0 0.0
2018-Jul-16 01:01N 42°37' W 070°40'0 0.0
2018-Jul-16 00:31N 42°37' W 070°40'0 0.0
2018-Jul-16 00:00N 42°37' W 070°40'0 0.0
2018-Jul-15 23:30N 42°37' W 070°40'0 0.0
2018-Jul-15 23:00N 42°37' W 070°40'0 0.0
2018-Jul-15 22:30N 42°37' W 070°40'0 0.0
2018-Jul-15 22:00N 42°37' W 070°40'0 0.0
2018-Jul-15 21:30N 42°37' W 070°40'2 3.7
2018-Jul-15 21:01N 42°35' W 070°38'714.1
2018-Jul-15 20:31N 42°43' W 070°37'917.9
2018-Jul-15 20:01N 42°51' W 070°38'3 5.6
2018-Jul-15 19:31N 42°50' W 070°41'1 1.2
2018-Jul-15 19:00N 42°50' W 070°42'5 9.3
2018-Jul-15 18:30N 42°46' W 070°40'917.3
2018-Jul-15 18:00N 42°38' W 070°34'4 8.8
2018-Jul-15 17:31N 42°37' W 070°40'0 0.1
2018-Jul-15 17:00N 42°37' W 070°40'0 0.2
2018-Jul-15 16:30N 42°37' W 070°40'4 8.8
2018-Jul-15 16:00N 42°38' W 070°34'816.4
2018-Jul-15 15:30N 42°45' W 070°39'4 7.6
2018-Jul-15 15:00N 42°49' W 070°41'2 3.9
2018-Jul-15 14:31N 42°50' W 070°44'2 3.4
2018-Jul-15 14:00N 42°49' W 070°42'510.2
2018-Jul-15 13:31N 42°44' W 070°41'816.0
2018-Jul-15 13:01N 42°38' W 070°34'4 8.3
2018-Jul-15 12:30N 42°37' W 070°40'0 0.0
2018-Jul-15 12:01N 42°37' W 070°40'0 0.0
2018-Jul-15 11:30N 42°37' W 070°40'0 0.0
2018-Jul-15 11:00N 42°37' W 070°40'0 0.0
2018-Jul-15 10:30N 42°37' W 070°40'0 0.0
2018-Jul-15 10:00N 42°37' W 070°40'0 0.0
2018-Jul-15 09:30N 42°37' W 070°40'0 0.0
2018-Jul-15 09:00N 42°37' W 070°40'0 0.0
2018-Jul-15 08:30N 42°37' W 070°40'0 0.0
2018-Jul-15 08:00N 42°37' W 070°40'0 0.0
2018-Jul-15 07:30N 42°37' W 070°40'0 0.0
2018-Jul-15 07:00N 42°37' W 070°40'0 0.0
2018-Jul-15 06:30N 42°37' W 070°40'0 0.0
2018-Jul-15 06:00N 42°37' W 070°40'0 0.0
2018-Jul-15 05:30N 42°37' W 070°40'0 0.0
2018-Jul-15 05:00N 42°37' W 070°40'0 0.0
2018-Jul-15 04:30N 42°37' W 070°40'0 0.0
2018-Jul-15 04:00N 42°37' W 070°40'0 0.0
2018-Jul-15 03:29N 42°37' W 070°40'0 0.0
2018-Jul-15 03:00N 42°37' W 070°40'0 0.0
2018-Jul-15 02:30N 42°37' W 070°40'0 0.0
2018-Jul-15 02:00N 42°37' W 070°40'0 0.0
2018-Jul-15 01:30N 42°37' W 070°40'2 4.1
2018-Jul-15 01:00N 42°36' W 070°37'713.8
2018-Jul-15 00:30N 42°43' W 070°37'2 3.7
2018-Jul-15 00:01N 42°44' W 070°38'0 0.9
2018-Jul-14 23:31N 42°45' W 070°37'3 5.0
2018-Jul-14 23:01N 42°42' W 070°37'714.6
2018-Jul-14 22:30N 42°35' W 070°38'2 4.2
2018-Jul-14 22:00N 42°37' W 070°40'714.7
2018-Jul-14 21:30N 42°30' W 070°36'918.4
2018-Jul-14 21:00N 42°22' W 070°30'918.5
2018-Jul-14 20:30N 42°14' W 070°23'3 5.2
2018-Jul-14 19:59N 42°12' W 070°22'1 1.4
2018-Jul-14 19:30N 42°12' W 070°23'4 8.2
2018-Jul-14 19:00N 42°14' W 070°27'917.1
2018-Jul-14 18:30N 42°22' W 070°32'917.7
2018-Jul-14 18:01N 42°30' W 070°38'714.1
2018-Jul-14 17:30N 42°37' W 070°40'2 4.6
2018-Jul-14 17:00N 42°34' W 070°40'918.1
2018-Jul-14 16:30N 42°26' W 070°34'918.0
2018-Jul-14 16:00N 42°19' W 070°28'815.4
2018-Jul-14 15:30N 42°12' W 070°23'1 2.2
2018-Jul-14 15:00N 42°11' W 070°22'3 6.8
2018-Jul-14 14:30N 42°13' W 070°19'1312.8
2018-Jul-14 13:30N 42°24' W 070°27'917.2
2018-Jul-14 13:00N 42°31' W 070°35'714.2
2018-Jul-14 12:31N 42°37' W 070°40'0 0.1
2018-Jul-14 12:00N 42°37' W 070°40'0 0.0
2018-Jul-14 11:31N 42°37' W 070°40'0 0.0
2018-Jul-14 11:00N 42°37' W 070°40'0 0.0
2018-Jul-14 10:30N 42°37' W 070°40'0 0.0
2018-Jul-14 10:00N 42°37' W 070°40'0 0.0
2018-Jul-14 09:30N 42°37' W 070°40'0 0.0
2018-Jul-14 09:00N 42°37' W 070°40'0 0.0
2018-Jul-14 08:30N 42°37' W 070°40'0 0.0
2018-Jul-14 08:00N 42°37' W 070°40'0 0.0
2018-Jul-14 07:30N 42°37' W 070°40'0 0.0
2018-Jul-14 07:00N 42°37' W 070°40'0 0.0
2018-Jul-14 06:30N 42°37' W 070°40'0 0.0
2018-Jul-14 06:00N 42°37' W 070°40'0 0.0
2018-Jul-14 05:30N 42°37' W 070°40'0 0.0
2018-Jul-14 05:00N 42°37' W 070°40'0 0.0
2018-Jul-14 04:30N 42°37' W 070°40'0 0.0
2018-Jul-14 04:00N 42°37' W 070°40'0 0.0
2018-Jul-14 03:30N 42°37' W 070°40'0 0.0
2018-Jul-14 03:00N 42°37' W 070°40'0 0.0
2018-Jul-14 02:30N 42°37' W 070°40'0 0.0
2018-Jul-14 02:00N 42°37' W 070°40'0 0.0
2018-Jul-14 01:30N 42°37' W 070°40'0 0.0
2018-Jul-14 01:00N 42°37' W 070°40'0 0.0
2018-Jul-14 00:30N 42°37' W 070°40'0 0.0
2018-Jul-14 00:00N 42°37' W 070°40'0 0.0
2018-Jul-13 23:29N 42°37' W 070°40'0 0.0
2018-Jul-13 23:00N 42°37' W 070°40'0 0.0
2018-Jul-13 22:30N 42°37' W 070°40'0 0.0
2018-Jul-13 22:00N 42°37' W 070°40'0 0.0
2018-Jul-13 21:30N 42°37' W 070°40'0 0.0
2018-Jul-13 20:58N 42°37' W 070°40'3 6.8
2018-Jul-13 20:30N 42°34' W 070°39'917.4
2018-Jul-13 20:00N 42°27' W 070°30'4 8.8
2018-Jul-13 19:30N 42°24' W 070°27'1 2.8
2018-Jul-13 19:00N 42°25' W 070°28'1 1.1
2018-Jul-13 18:30N 42°24' W 070°28'816.3
2018-Jul-13 18:00N 42°30' W 070°36'713.8
2018-Jul-13 17:30N 42°37' W 070°40'0 0.0
2018-Jul-13 17:00N 42°37' W 070°40'0 0.0
2018-Jul-13 16:31N 42°37' W 070°40'0 0.0
2018-Jul-13 16:00N 42°37' W 070°40'4 7.8
2018-Jul-13 15:30N 42°33' W 070°38'917.5
2018-Jul-13 15:00N 42°27' W 070°30'3 3.3
2018-Jul-13 14:00N 42°25' W 070°26'0 0.5
2018-Jul-13 13:30N 42°25' W 070°26'917.6
2018-Jul-13 13:01N 42°30' W 070°36'713.8
2018-Jul-13 12:30N 42°37' W 070°40'0 0.0
2018-Jul-13 12:00N 42°37' W 070°40'0 0.0
2018-Jul-13 11:31N 42°37' W 070°40'0 0.0
2018-Jul-13 11:00N 42°37' W 070°40'0 0.0
2018-Jul-13 10:30N 42°37' W 070°40'0 0.0
2018-Jul-13 10:00N 42°37' W 070°40'0 0.0
2018-Jul-13 09:30N 42°37' W 070°40'0 0.0
2018-Jul-13 09:00N 42°37' W 070°40'0 0.0
2018-Jul-13 08:30N 42°37' W 070°40'0 0.0
2018-Jul-13 08:00N 42°37' W 070°40'0 0.0
2018-Jul-13 07:30N 42°37' W 070°40'0 0.0
2018-Jul-13 07:00N 42°37' W 070°40'0 0.0
2018-Jul-13 06:30N 42°37' W 070°40'0 0.0
2018-Jul-13 06:00N 42°37' W 070°40'0 0.0
2018-Jul-13 05:30N 42°37' W 070°40'0 0.0
2018-Jul-13 05:00N 42°37' W 070°40'0 0.0
2018-Jul-13 04:30N 42°37' W 070°40'0 0.0
2018-Jul-13 04:00N 42°37' W 070°40'0 0.0
2018-Jul-13 03:30N 42°37' W 070°40'0 0.0
2018-Jul-13 03:00N 42°37' W 070°40'0 0.0
2018-Jul-13 02:30N 42°37' W 070°40'0 0.0
2018-Jul-13 02:00N 42°37' W 070°40'0 0.0
2018-Jul-13 01:30N 42°37' W 070°40'0 0.4
2018-Jul-13 01:00N 42°36' W 070°40'0 0.6
2018-Jul-13 00:30N 42°36' W 070°40'1 1.0
2018-Jul-13 00:00N 42°36' W 070°41'1 1.5
2018-Jul-12 23:30N 42°36' W 070°40'0 0.5
2018-Jul-12 23:00N 42°37' W 070°40'0 0.0
2018-Jul-12 22:30N 42°37' W 070°40'0 0.0
2018-Jul-12 22:00N 42°37' W 070°40'0 0.0
2018-Jul-12 21:30N 42°37' W 070°40'0 0.0
2018-Jul-12 21:00N 42°37' W 070°40'3 6.1
2018-Jul-12 20:30N 42°34' W 070°39'917.8
2018-Jul-12 20:01N 42°28' W 070°30'4 7.1
2018-Jul-12 19:30N 42°25' W 070°27'1 1.8
2018-Jul-12 19:00N 42°24' W 070°26'1 1.3
2018-Jul-12 18:30N 42°25' W 070°27'917.2
2018-Jul-12 18:00N 42°32' W 070°34'713.3
2018-Jul-12 17:30N 42°37' W 070°40'0 0.1
2018-Jul-12 17:00N 42°37' W 070°40'0 0.0
2018-Jul-12 16:30N 42°37' W 070°40'0 0.0
2018-Jul-12 16:00N 42°37' W 070°40'1 1.0
2018-Jul-12 15:30N 42°36' W 070°40'714.2
2018-Jul-12 15:00N 42°30' W 070°34'2 4.4
2018-Jul-12 14:30N 42°29' W 070°32'1 1.8
2018-Jul-12 14:00N 42°28' W 070°32'1 2.8
2018-Jul-12 13:30N 42°27' W 070°31'510.0
2018-Jul-12 13:01N 42°31' W 070°35'713.8
2018-Jul-12 12:30N 42°37' W 070°40'0 0.0
2018-Jul-12 12:00N 42°37' W 070°40'0 0.0
2018-Jul-12 11:30N 42°37' W 070°40'0 0.0
2018-Jul-12 11:00N 42°37' W 070°40'0 0.0
2018-Jul-12 10:30N 42°37' W 070°40'0 0.0
2018-Jul-12 10:00N 42°37' W 070°40'0 0.0
2018-Jul-12 09:31N 42°37' W 070°40'0 0.0
2018-Jul-12 09:00N 42°37' W 070°40'0 0.0
2018-Jul-12 08:30N 42°37' W 070°40'0 0.0
2018-Jul-12 08:00N 42°37' W 070°40'0 0.0
2018-Jul-12 07:31N 42°37' W 070°40'0 0.0
2018-Jul-12 07:00N 42°37' W 070°40'0 0.0
2018-Jul-12 06:30N 42°37' W 070°40'0 0.0
2018-Jul-12 06:00N 42°37' W 070°40'0 0.0
2018-Jul-12 05:30N 42°37' W 070°40'0 0.0
2018-Jul-12 05:01N 42°37' W 070°40'0 0.0
2018-Jul-12 04:30N 42°37' W 070°40'0 0.0
2018-Jul-12 04:00N 42°37' W 070°40'0 0.0
2018-Jul-12 03:30N 42°37' W 070°40'0 0.0
2018-Jul-12 03:00N 42°37' W 070°40'0 0.0
2018-Jul-12 02:30N 42°37' W 070°40'0 0.0
2018-Jul-12 02:00N 42°37' W 070°40'0 0.0
2018-Jul-12 01:30N 42°37' W 070°40'0 0.0
2018-Jul-12 01:00N 42°37' W 070°40'0 0.0
2018-Jul-12 00:30N 42°37' W 070°40'0 0.0
2018-Jul-12 00:00N 42°37' W 070°40'0 0.0
2018-Jul-11 23:30N 42°37' W 070°40'0 0.0
2018-Jul-11 23:00N 42°37' W 070°40'0 0.0
2018-Jul-11 22:30N 42°37' W 070°40'0 0.0
2018-Jul-11 22:00N 42°37' W 070°40'0 0.0
2018-Jul-11 21:30N 42°37' W 070°40'0 0.0
2018-Jul-11 21:01N 42°37' W 070°40'1 2.1
2018-Jul-11 20:30N 42°36' W 070°40'917.3
2018-Jul-11 20:00N 42°29' W 070°34'713.3
2018-Jul-11 19:30N 42°24' W 070°27'1 2.6
2018-Jul-11 19:00N 42°25' W 070°28'4 8.3
2018-Jul-11 18:30N 42°28' W 070°32'3 6.4
2018-Jul-11 18:00N 42°30' W 070°35'714.4
2018-Jul-11 17:30N 42°37' W 070°40'0 0.0
2018-Jul-11 17:00N 42°37' W 070°40'0 0.0
2018-Jul-11 16:30N 42°37' W 070°40'0 0.0
2018-Jul-11 16:00N 42°37' W 070°40'1 2.8
2018-Jul-11 15:30N 42°35' W 070°40'917.5
2018-Jul-11 15:00N 42°29' W 070°32'713.7
2018-Jul-11 14:30N 42°25' W 070°25'0 0.7
2018-Jul-11 14:00N 42°24' W 070°25'2 4.2
2018-Jul-11 13:31N 42°25' W 070°27'816.5
2018-Jul-11 13:01N 42°31' W 070°35'713.1
2018-Jul-11 12:30N 42°37' W 070°40'0 0.0
2018-Jul-11 12:01N 42°37' W 070°40'0 0.0
2018-Jul-11 11:31N 42°37' W 070°40'0 0.0
2018-Jul-11 11:00N 42°37' W 070°40'0 0.0
2018-Jul-11 10:31N 42°37' W 070°40'0 0.0
2018-Jul-11 10:01N 42°37' W 070°40'0 0.0
2018-Jul-11 09:30N 42°37' W 070°40'0 0.0
2018-Jul-11 09:01N 42°37' W 070°40'  
Track history (hours):
 
Tides and Currents Weather Stations Pressure Air Temp Water Temp Dewpoint Dewpoint Depression Visibility Wind Speed Wind Dir Waves Ship Positions

Privateer IV

Owner: 7 Seas Whale Watch, Gloucester, MA. More information available from US FCC via Universal Licensing System and Coast Guard Vessel Documentation Center.

Last reported at 2018-Jul-21 09:00 UTC. Time now 2018-Jul-21 09:10 UTC.
Position N 42°37' W 070°40'.

Length 30 m.

Type: Ship. MMSI: 367529770.

Date/timePositionNaut miles runAvg speedWind from/ knotsBaromVisibWave heightAir tempDewpointWater temp
2018-Jul-21 09:00N 42°37' W 070°40'0 0.0
2018-Jul-21 08:30N 42°37' W 070°40'0 0.0
2018-Jul-21 08:00N 42°37' W 070°40'0 0.0
2018-Jul-21 07:30N 42°37' W 070°40'0 0.0
2018-Jul-21 07:00N 42°37' W 070°40'0 0.0
2018-Jul-21 06:30N 42°37' W 070°40'0 0.0
2018-Jul-21 06:00N 42°37' W 070°40'0 0.0
2018-Jul-21 05:30N 42°37' W 070°40'0 0.0
2018-Jul-21 05:00N 42°37' W 070°40'0 0.0
2018-Jul-21 04:30N 42°37' W 070°40'0 0.0
2018-Jul-21 04:00N 42°37' W 070°40'0 0.0
2018-Jul-21 03:30N 42°37' W 070°40'0 0.0
2018-Jul-21 03:00N 42°37' W 070°40'0 0.0
2018-Jul-21 02:30N 42°37' W 070°40'0 0.0
2018-Jul-21 02:00N 42°37' W 070°40'0 0.0
2018-Jul-21 01:30N 42°37' W 070°40'0 0.0
2018-Jul-21 01:00N 42°37' W 070°40'0 0.0
2018-Jul-21 00:30N 42°37' W 070°40'0 0.0
2018-Jul-21 00:00N 42°37' W 070°40'0 0.0
2018-Jul-20 23:30N 42°37' W 070°40'0 0.0
2018-Jul-20 23:00N 42°37' W 070°40'0 0.0
2018-Jul-20 22:30N 42°37' W 070°40'0 0.0
2018-Jul-20 22:00N 42°37' W 070°40'0 0.0
2018-Jul-20 21:30N 42°37' W 070°40'0 0.3
2018-Jul-20 21:00N 42°37' W 070°40'4 8.3
2018-Jul-20 20:31N 42°38' W 070°34'816.9
2018-Jul-20 20:00N 42°45' W 070°40'3 5.4
2018-Jul-20 19:30N 42°48' W 070°42'0 0.9
2018-Jul-20 19:00N 42°48' W 070°41'2 4.7
2018-Jul-20 18:30N 42°46' W 070°40'917.3
2018-Jul-20 18:00N 42°38' W 070°34'4 8.6
2018-Jul-20 17:30N 42°37' W 070°40'0 0.1
2018-Jul-20 17:00N 42°37' W 070°40'0 0.0
2018-Jul-20 16:30N 42°37' W 070°40'0 0.0
2018-Jul-20 16:00N 42°37' W 070°40'2 4.5
2018-Jul-20 15:31N 42°34' W 070°39'713.8
2018-Jul-20 15:01N 42°41' W 070°36'611.6
2018-Jul-20 14:31N 42°46' W 070°40'1 1.3
2018-Jul-20 14:00N 42°47' W 070°41'3 5.6
2018-Jul-20 13:30N 42°46' W 070°37'816.4
2018-Jul-20 13:00N 42°38' W 070°34'4 8.7
2018-Jul-20 12:30N 42°37' W 070°40'0 0.1
2018-Jul-20 12:00N 42°37' W 070°40'0 0.0
2018-Jul-20 11:30N 42°37' W 070°40'0 0.0
2018-Jul-20 11:00N 42°37' W 070°40'0 0.0
2018-Jul-20 10:30N 42°37' W 070°40'0 0.0
2018-Jul-20 10:00N 42°37' W 070°40'0 0.0
2018-Jul-20 09:30N 42°37' W 070°40'0 0.0
2018-Jul-20 09:00N 42°37' W 070°40'0 0.0
2018-Jul-20 08:30N 42°37' W 070°40'0 0.0
2018-Jul-20 08:00N 42°37' W 070°40'0 0.0
2018-Jul-20 07:30N 42°37' W 070°40'0 0.0
2018-Jul-20 07:00N 42°37' W 070°40'0 0.0
2018-Jul-20 06:30N 42°37' W 070°40'0 0.0
2018-Jul-20 06:00N 42°37' W 070°40'0 0.0
2018-Jul-20 05:30N 42°37' W 070°40'0 0.0
2018-Jul-20 05:00N 42°37' W 070°40'0 0.0
2018-Jul-20 04:30N 42°37' W 070°40'0 0.0
2018-Jul-20 04:00N 42°37' W 070°40'0 0.0
2018-Jul-20 03:30N 42°37' W 070°40'0 0.0
2018-Jul-20 03:00N 42°37' W 070°40'0 0.0
2018-Jul-20 02:30N 42°37' W 070°40'0 0.0
2018-Jul-20 02:00N 42°37' W 070°40'0 0.0
2018-Jul-20 01:30N 42°37' W 070°40'0 0.0
2018-Jul-20 01:00N 42°37' W 070°40'0 0.0
2018-Jul-20 00:30N 42°37' W 070°40'0 0.0
2018-Jul-20 00:00N 42°37' W 070°40'0 0.0
2018-Jul-19 23:30N 42°37' W 070°40'0 0.0
2018-Jul-19 23:00N 42°37' W 070°40'0 0.0
2018-Jul-19 22:30N 42°37' W 070°40'0 0.0
2018-Jul-19 22:00N 42°37' W 070°40'0 0.0
2018-Jul-19 21:30N 42°37' W 070°40'1 2.3
2018-Jul-19 21:01N 42°36' W 070°41'611.6
2018-Jul-19 20:31N 42°40' W 070°35'917.3
2018-Jul-19 20:01N 42°48' W 070°39'4 8.0
2018-Jul-19 19:30N 42°52' W 070°41'0 0.1
2018-Jul-19 19:00N 42°52' W 070°41'612.2
2018-Jul-19 18:30N 42°46' W 070°39'917.4
2018-Jul-19 18:00N 42°38' W 070°34'4 8.4
2018-Jul-19 17:30N 42°37' W 070°40'0 0.1
2018-Jul-19 17:00N 42°37' W 070°40'1 2.5
2018-Jul-19 16:30N 42°36' W 070°40'611.8
2018-Jul-19 16:00N 42°40' W 070°35'918.4
2018-Jul-19 15:30N 42°49' W 070°40'3 5.6
2018-Jul-19 15:00N 42°51' W 070°41'2 3.4
2018-Jul-19 14:31N 42°51' W 070°39'8 8.2
2018-Jul-19 13:30N 42°44' W 070°34'511.0
2018-Jul-19 13:01N 42°38' W 070°34'5 9.1
2018-Jul-19 12:30N 42°37' W 070°40'0 0.1
2018-Jul-19 12:00N 42°37' W 070°40'0 0.0
2018-Jul-19 11:30N 42°37' W 070°40'0 0.0
2018-Jul-19 11:00N 42°37' W 070°40'0 0.0
2018-Jul-19 10:30N 42°37' W 070°40'0 0.0
2018-Jul-19 10:00N 42°37' W 070°40'0 0.0
2018-Jul-19 09:30N 42°37' W 070°40'0 0.0
2018-Jul-19 09:00N 42°37' W 070°40'0 0.0
2018-Jul-19 08:30N 42°37' W 070°40'0 0.0
2018-Jul-19 08:01N 42°37' W 070°40'0 0.0
2018-Jul-19 07:30N 42°37' W 070°40'0 0.0
2018-Jul-19 07:00N 42°37' W 070°40'0 0.0
2018-Jul-19 06:30N 42°37' W 070°40'0 0.0
2018-Jul-19 06:01N 42°37' W 070°40'0 0.0
2018-Jul-19 05:30N 42°37' W 070°40'0 0.0
2018-Jul-19 05:00N 42°37' W 070°40'0 0.0
2018-Jul-19 04:30N 42°37' W 070°40'0 0.0
2018-Jul-19 04:01N 42°37' W 070°40'0 0.0
2018-Jul-19 03:30N 42°37' W 070°40'0 0.0
2018-Jul-19 03:00N 42°37' W 070°40'0 0.0
2018-Jul-19 02:30N 42°37' W 070°40'0 0.0
2018-Jul-19 02:00N 42°37' W 070°40'0 0.0
2018-Jul-19 01:30N 42°37' W 070°40'0 0.0
2018-Jul-19 01:01N 42°37' W 070°40'0 0.0
2018-Jul-19 00:30N 42°37' W 070°40'0 0.0
2018-Jul-19 00:00N 42°37' W 070°40'0 0.0
2018-Jul-18 23:30N 42°37' W 070°40'0 0.0
2018-Jul-18 23:01N 42°37' W 070°40'0 0.0
2018-Jul-18 22:30N 42°37' W 070°40'0 0.0
2018-Jul-18 22:00N 42°37' W 070°40'0 0.0
2018-Jul-18 21:30N 42°37' W 070°40'0 0.0
2018-Jul-18 21:00N 42°37' W 070°40'1 2.0
2018-Jul-18 20:30N 42°36' W 070°40'713.1
2018-Jul-18 20:00N 42°38' W 070°32'611.8
2018-Jul-18 19:30N 42°44' W 070°31'4 7.1
2018-Jul-18 19:00N 42°43' W 070°36'0 0.1
2018-Jul-18 18:30N 42°43' W 070°36'510.1
2018-Jul-18 18:00N 42°39' W 070°34'5 9.5
2018-Jul-18 17:30N 42°36' W 070°40'0 0.4
2018-Jul-18 17:00N 42°37' W 070°40'0 0.0
2018-Jul-18 16:30N 42°37' W 070°40'0 0.0
2018-Jul-18 16:00N 42°37' W 070°40'2 4.2
2018-Jul-18 15:30N 42°35' W 070°40'916.9
2018-Jul-18 15:00N 42°39' W 070°30'5 9.9
2018-Jul-18 14:30N 42°43' W 070°34'3 3.1
2018-Jul-18 13:30N 42°45' W 070°38'714.3
2018-Jul-18 13:00N 42°38' W 070°34'4 8.4
2018-Jul-18 12:30N 42°37' W 070°40'0 0.0
2018-Jul-18 12:00N 42°37' W 070°40'0 0.0
2018-Jul-18 11:30N 42°37' W 070°40'0 0.0
2018-Jul-18 10:30N 42°37' W 070°40'0 0.0
2018-Jul-18 10:00N 42°37' W 070°40'0 0.0
2018-Jul-18 09:30N 42°37' W 070°40'0 0.0
2018-Jul-18 09:00N 42°37' W 070°40'0 0.0
2018-Jul-18 08:30N 42°37' W 070°40'0 0.0
2018-Jul-18 08:00N 42°37' W 070°40'0 0.0
2018-Jul-18 07:30N 42°37' W 070°40'0 0.0
2018-Jul-18 07:00N 42°37' W 070°40'0 0.0
2018-Jul-18 06:30N 42°37' W 070°40'0 0.0
2018-Jul-18 06:00N 42°37' W 070°40'0 0.0
2018-Jul-18 05:30N 42°37' W 070°40'0 0.0
2018-Jul-18 05:00N 42°37' W 070°40'0 0.0
2018-Jul-18 04:30N 42°37' W 070°40'0 0.0
2018-Jul-18 04:00N 42°37' W 070°40'0 0.0
2018-Jul-18 03:30N 42°37' W 070°40'0 0.0
2018-Jul-18 03:00N 42°37' W 070°40'0 0.0
2018-Jul-18 02:30N 42°37' W 070°40'0 0.0
2018-Jul-18 02:00N 42°37' W 070°40'0 0.0
2018-Jul-18 01:30N 42°37' W 070°40'0 0.0
2018-Jul-18 01:00N 42°37' W 070°40'0 0.0
2018-Jul-18 00:30N 42°37' W 070°40'0 0.0
2018-Jul-18 00:00N 42°37' W 070°40'0 0.0
2018-Jul-17 23:30N 42°37' W 070°40'0 0.0
2018-Jul-17 23:00N 42°37' W 070°40'0 0.0
2018-Jul-17 22:30N 42°37' W 070°40'0 0.0
2018-Jul-17 22:00N 42°37' W 070°40'0 0.0
2018-Jul-17 21:30N 42°37' W 070°40'0 0.0
2018-Jul-17 21:00N 42°37' W 070°40'0 0.0
2018-Jul-17 20:30N 42°37' W 070°40'0 0.0
2018-Jul-17 20:00N 42°37' W 070°40'0 0.0
2018-Jul-17 19:30N 42°37' W 070°40'0 0.0
2018-Jul-17 19:00N 42°37' W 070°40'0 0.0
2018-Jul-17 18:30N 42°37' W 070°40'0 0.0
2018-Jul-17 17:59N 42°37' W 070°40'0 0.0
2018-Jul-17 17:30N 42°37' W 070°40'0 0.0
2018-Jul-17 17:00N 42°37' W 070°40'0 0.0
2018-Jul-17 16:30N 42°37' W 070°40'0 0.0
2018-Jul-17 16:01N 42°37' W 070°40'0 0.0
2018-Jul-17 15:30N 42°37' W 070°40'0 0.0
2018-Jul-17 15:00N 42°37' W 070°40'0 0.0
2018-Jul-17 14:30N 42°37' W 070°40'0 0.0
2018-Jul-17 14:00N 42°37' W 070°40'0 0.0
2018-Jul-17 13:30N 42°37' W 070°40'0 0.0
2018-Jul-17 13:00N 42°37' W 070°40'0 0.0
2018-Jul-17 12:30N 42°37' W 070°40'0 0.0
2018-Jul-17 12:00N 42°37' W 070°40'0 0.0
2018-Jul-17 11:30N 42°37' W 070°40'0 0.0
2018-Jul-17 11:00N 42°37' W 070°40'0 0.0
2018-Jul-17 10:30N 42°37' W 070°40'0 0.0
2018-Jul-17 10:01N 42°37' W 070°40'0 0.0
2018-Jul-17 09:30N 42°37' W 070°40'0 0.0
2018-Jul-17 09:00N 42°37' W 070°40'0 0.0
2018-Jul-17 08:30N 42°37' W 070°40'0 0.0
2018-Jul-17 08:00N 42°37' W 070°40'0 0.0
2018-Jul-17 07:30N 42°37' W 070°40'0 0.0
2018-Jul-17 07:00N 42°37' W 070°40'0 0.0
2018-Jul-17 06:28N 42°37' W 070°40'0 0.0
2018-Jul-17 06:00N 42°37' W 070°40'0 0.0
2018-Jul-17 05:30N 42°37' W 070°40'0 0.0
2018-Jul-17 05:00N 42°37' W 070°40'0 0.0
2018-Jul-17 04:30N 42°37' W 070°40'0 0.0
2018-Jul-17 04:00N 42°37' W 070°40'0 0.0
2018-Jul-17 03:30N 42°37' W 070°40'0 0.0
2018-Jul-17 03:00N 42°37' W 070°40'0 0.0
2018-Jul-17 02:30N 42°37' W 070°40'0 0.0
2018-Jul-17 02:00N 42°37' W 070°40'0 0.0
2018-Jul-17 01:30N 42°37' W 070°40'0 0.0
2018-Jul-17 01:00N 42°37' W 070°40'0 0.0
2018-Jul-17 00:30N 42°37' W 070°40'0 0.0
2018-Jul-16 23:30N 42°37' W 070°40'0 0.0
2018-Jul-16 23:01N 42°37' W 070°40'0 0.0
2018-Jul-16 22:30N 42°37' W 070°40'0 0.0
2018-Jul-16 22:00N 42°37' W 070°40'0 0.0
2018-Jul-16 21:30N 42°37' W 070°40'2 3.6
2018-Jul-16 21:00N 42°36' W 070°38'815.3
2018-Jul-16 20:30N 42°43' W 070°35'917.2
2018-Jul-16 20:00N 42°50' W 070°42'0 0.6
2018-Jul-16 19:30N 42°50' W 070°42'1 2.8
2018-Jul-16 19:00N 42°49' W 070°42'917.2
2018-Jul-16 18:30N 42°41' W 070°36'713.3
2018-Jul-16 18:00N 42°35' W 070°39'2 3.9
2018-Jul-16 17:30N 42°37' W 070°40'4 9.0
2018-Jul-16 17:00N 42°38' W 070°34'917.7
2018-Jul-16 16:30N 42°46' W 070°41'2 4.2
2018-Jul-16 16:00N 42°47' W 070°43'2 3.2
2018-Jul-16 15:31N 42°46' W 070°41'815.6
2018-Jul-16 15:00N 42°43' W 070°31'4 7.1
2018-Jul-16 14:30N 42°46' W 070°28'4 8.6
2018-Jul-16 14:00N 42°48' W 070°33'714.9
2018-Jul-16 13:30N 42°41' W 070°28'815.1
2018-Jul-16 13:00N 42°35' W 070°34'4 8.9
2018-Jul-16 12:30N 42°37' W 070°40'0 0.0
2018-Jul-16 12:01N 42°37' W 070°40'0 0.0
2018-Jul-16 11:30N 42°37' W 070°40'0 0.0
2018-Jul-16 11:01N 42°37' W 070°40'0 0.0
2018-Jul-16 10:31N 42°37' W 070°40'0 0.0
2018-Jul-16 10:01N 42°37' W 070°40'0 0.0
2018-Jul-16 09:30N 42°37' W 070°40'0 0.0
2018-Jul-16 09:00N 42°37' W 070°40'0 0.0
2018-Jul-16 08:31N 42°37' W 070°40'0 0.0
2018-Jul-16 08:00N 42°37' W 070°40'0 0.0
2018-Jul-16 07:30N 42°37' W 070°40'0 0.0
2018-Jul-16 07:00N 42°37' W 070°40'0 0.0
2018-Jul-16 06:30N 42°37' W 070°40'0 0.0
2018-Jul-16 06:00N 42°37' W 070°40'0 0.0
2018-Jul-16 05:29N 42°37' W 070°40'0 0.0
2018-Jul-16 04:59N 42°37' W 070°40'0 0.0
2018-Jul-16 04:30N 42°37' W 070°40'0 0.0
2018-Jul-16 04:00N 42°37' W 070°40'0 0.0
2018-Jul-16 03:31N 42°37' W 070°40'0 0.0
2018-Jul-16 03:01N 42°37' W 070°40'0 0.0
2018-Jul-16 02:30N 42°37' W 070°40'0 0.0
2018-Jul-16 02:00N 42°37' W 070°40'0 0.0
2018-Jul-16 01:30N 42°37' W 070°40'0 0.0
2018-Jul-16 01:01N 42°37' W 070°40'0 0.0
2018-Jul-16 00:31N 42°37' W 070°40'0 0.0
2018-Jul-16 00:00N 42°37' W 070°40'0 0.0
2018-Jul-15 23:30N 42°37' W 070°40'0 0.0
2018-Jul-15 23:00N 42°37' W 070°40'0 0.0
2018-Jul-15 22:30N 42°37' W 070°40'0 0.0
2018-Jul-15 22:00N 42°37' W 070°40'0 0.0
2018-Jul-15 21:30N 42°37' W 070°40'2 3.7
2018-Jul-15 21:01N 42°35' W 070°38'714.1
2018-Jul-15 20:31N 42°43' W 070°37'917.9
2018-Jul-15 20:01N 42°51' W 070°38'3 5.6
2018-Jul-15 19:31N 42°50' W 070°41'1 1.2
2018-Jul-15 19:00N 42°50' W 070°42'5 9.3
2018-Jul-15 18:30N 42°46' W 070°40'917.3
2018-Jul-15 18:00N 42°38' W 070°34'4 8.8
2018-Jul-15 17:31N 42°37' W 070°40'0 0.1
2018-Jul-15 17:00N 42°37' W 070°40'0 0.2
2018-Jul-15 16:30N 42°37' W 070°40'4 8.8
2018-Jul-15 16:00N 42°38' W 070°34'816.4
2018-Jul-15 15:30N 42°45' W 070°39'4 7.6
2018-Jul-15 15:00N 42°49' W 070°41'2 3.9
2018-Jul-15 14:31N 42°50' W 070°44'2 3.4
2018-Jul-15 14:00N 42°49' W 070°42'510.2
2018-Jul-15 13:31N 42°44' W 070°41'816.0
2018-Jul-15 13:01N 42°38' W 070°34'4 8.3
2018-Jul-15 12:30N 42°37' W 070°40'0 0.0
2018-Jul-15 12:01N 42°37' W 070°40'0 0.0
2018-Jul-15 11:30N 42°37' W 070°40'0 0.0
2018-Jul-15 11:00N 42°37' W 070°40'0 0.0
2018-Jul-15 10:30N 42°37' W 070°40'0 0.0
2018-Jul-15 10:00N 42°37' W 070°40'0 0.0
2018-Jul-15 09:30N 42°37' W 070°40'0 0.0
2018-Jul-15 09:00N 42°37' W 070°40'0 0.0
2018-Jul-15 08:30N 42°37' W 070°40'0 0.0
2018-Jul-15 08:00N 42°37' W 070°40'0 0.0
2018-Jul-15 07:30N 42°37' W 070°40'0 0.0
2018-Jul-15 07:00N 42°37' W 070°40'0 0.0
2018-Jul-15 06:30N 42°37' W 070°40'0 0.0
2018-Jul-15 06:00N 42°37' W 070°40'0 0.0
2018-Jul-15 05:30N 42°37' W 070°40'0 0.0
2018-Jul-15 05:00N 42°37' W 070°40'0 0.0
2018-Jul-15 04:30N 42°37' W 070°40'0 0.0
2018-Jul-15 04:00N 42°37' W 070°40'0 0.0
2018-Jul-15 03:29N 42°37' W 070°40'0 0.0
2018-Jul-15 03:00N 42°37' W 070°40'0 0.0
2018-Jul-15 02:30N 42°37' W 070°40'0 0.0
2018-Jul-15 02:00N 42°37' W 070°40'0 0.0
2018-Jul-15 01:30N 42°37' W 070°40'2 4.1
2018-Jul-15 01:00N 42°36' W 070°37'713.8
2018-Jul-15 00:30N 42°43' W 070°37'2 3.7
2018-Jul-15 00:01N 42°44' W 070°38'0 0.9
2018-Jul-14 23:31N 42°45' W 070°37'3 5.0
2018-Jul-14 23:01N 42°42' W 070°37'714.6
2018-Jul-14 22:30N 42°35' W 070°38'2 4.2
2018-Jul-14 22:00N 42°37' W 070°40'714.7
2018-Jul-14 21:30N 42°30' W 070°36'918.4
2018-Jul-14 21:00N 42°22' W 070°30'918.5
2018-Jul-14 20:30N 42°14' W 070°23'3 5.2
2018-Jul-14 19:59N 42°12' W 070°22'1 1.4
2018-Jul-14 19:30N 42°12' W 070°23'4 8.2
2018-Jul-14 19:00N 42°14' W 070°27'917.1
2018-Jul-14 18:30N 42°22' W 070°32'917.7
2018-Jul-14 18:01N 42°30' W 070°38'714.1
2018-Jul-14 17:30N 42°37' W 070°40'2 4.6
2018-Jul-14 17:00N 42°34' W 070°40'918.1
2018-Jul-14 16:30N 42°26' W 070°34'918.0
2018-Jul-14 16:00N 42°19' W 070°28'815.4
2018-Jul-14 15:30N 42°12' W 070°23'1 2.2
2018-Jul-14 15:00N 42°11' W 070°22'3 6.8
2018-Jul-14 14:30N 42°13' W 070°19'1312.8
2018-Jul-14 13:30N 42°24' W 070°27'917.2
2018-Jul-14 13:00N 42°31' W 070°35'714.2
2018-Jul-14 12:31N 42°37' W 070°40'0 0.1
2018-Jul-14 12:00N 42°37' W 070°40'0 0.0
2018-Jul-14 11:31N 42°37' W 070°40'0 0.0
2018-Jul-14 11:00N 42°37' W 070°40'0 0.0
2018-Jul-14 10:30N 42°37' W 070°40'0 0.0
2018-Jul-14 10:00N 42°37' W 070°40'0 0.0
2018-Jul-14 09:30N 42°37' W 070°40'0 0.0
2018-Jul-14 09:00N 42°37' W 070°40'0 0.0
2018-Jul-14 08:30N 42°37' W 070°40'0 0.0
2018-Jul-14 08:00N 42°37' W 070°40'0 0.0
2018-Jul-14 07:30N 42°37' W 070°40'0 0.0
2018-Jul-14 07:00N 42°37' W 070°40'0 0.0
2018-Jul-14 06:30N 42°37' W 070°40'0 0.0
2018-Jul-14 06:00N 42°37' W 070°40'0 0.0
2018-Jul-14 05:30N 42°37' W 070°40'0 0.0
2018-Jul-14 05:00N 42°37' W 070°40'0 0.0
2018-Jul-14 04:30N 42°37' W 070°40'0 0.0
2018-Jul-14 04:00N 42°37' W 070°40'0 0.0
2018-Jul-14 03:30N 42°37' W 070°40'0 0.0
2018-Jul-14 03:00N 42°37' W 070°40'0 0.0
2018-Jul-14 02:30N 42°37' W 070°40'0 0.0
2018-Jul-14 02:00N 42°37' W 070°40'0 0.0
2018-Jul-14 01:30N 42°37' W 070°40'0 0.0
2018-Jul-14 01:00N 42°37' W 070°40'0 0.0
2018-Jul-14 00:30N 42°37' W 070°40'0 0.0
2018-Jul-14 00:00N 42°37' W 070°40'0 0.0
2018-Jul-13 23:29N 42°37' W 070°40'0 0.0
2018-Jul-13 23:00N 42°37' W 070°40'0 0.0
2018-Jul-13 22:30N 42°37' W 070°40'0 0.0
2018-Jul-13 22:00N 42°37' W 070°40'0 0.0
2018-Jul-13 21:30N 42°37' W 070°40'0 0.0
2018-Jul-13 20:58N 42°37' W 070°40'3 6.8
2018-Jul-13 20:30N 42°34' W 070°39'917.4
2018-Jul-13 20:00N 42°27' W 070°30'4 8.8
2018-Jul-13 19:30N 42°24' W 070°27'1 2.8
2018-Jul-13 19:00N 42°25' W 070°28'1 1.1
2018-Jul-13 18:30N 42°24' W 070°28'816.3
2018-Jul-13 18:00N 42°30' W 070°36'713.8
2018-Jul-13 17:30N 42°37' W 070°40'0 0.0
2018-Jul-13 17:00N 42°37' W 070°40'0 0.0
2018-Jul-13 16:31N 42°37' W 070°40'0 0.0
2018-Jul-13 16:00N 42°37' W 070°40'4 7.8
2018-Jul-13 15:30N 42°33' W 070°38'917.5
2018-Jul-13 15:00N 42°27' W 070°30'3 3.3
2018-Jul-13 14:00N 42°25' W 070°26'0 0.5
2018-Jul-13 13:30N 42°25' W 070°26'917.6
2018-Jul-13 13:01N 42°30' W 070°36'713.8
2018-Jul-13 12:30N 42°37' W 070°40'0 0.0
2018-Jul-13 12:00N 42°37' W 070°40'0 0.0
2018-Jul-13 11:31N 42°37' W 070°40'0 0.0
2018-Jul-13 11:00N 42°37' W 070°40'0 0.0
2018-Jul-13 10:30N 42°37' W 070°40'0 0.0
2018-Jul-13 10:00N 42°37' W 070°40'0 0.0
2018-Jul-13 09:30N 42°37' W 070°40'0 0.0
2018-Jul-13 09:00N 42°37' W 070°40'0 0.0
2018-Jul-13 08:30N 42°37' W 070°40'0 0.0
2018-Jul-13 08:00N 42°37' W 070°40'0 0.0
2018-Jul-13 07:30N 42°37' W 070°40'0 0.0
2018-Jul-13 07:00N 42°37' W 070°40'0 0.0
2018-Jul-13 06:30N 42°37' W 070°40'0 0.0
2018-Jul-13 06:00N 42°37' W 070°40'0 0.0
2018-Jul-13 05:30N 42°37' W 070°40'0 0.0
2018-Jul-13 05:00N 42°37' W 070°40'0 0.0
2018-Jul-13 04:30N 42°37' W 070°40'0 0.0
2018-Jul-13 04:00N 42°37' W 070°40'0 0.0
2018-Jul-13 03:30N 42°37' W 070°40'0 0.0
2018-Jul-13 03:00N 42°37' W 070°40'0 0.0
2018-Jul-13 02:30N 42°37' W 070°40'0 0.0
2018-Jul-13 02:00N 42°37' W 070°40'0 0.0
2018-Jul-13 01:30N 42°37' W 070°40'0 0.4
2018-Jul-13 01:00N 42°36' W 070°40'0 0.6
2018-Jul-13 00:30N 42°36' W 070°40'1 1.0
2018-Jul-13 00:00N 42°36' W 070°41'1 1.5
2018-Jul-12 23:30N 42°36' W 070°40'0 0.5
2018-Jul-12 23:00N 42°37' W 070°40'0 0.0
2018-Jul-12 22:30N 42°37' W 070°40'0 0.0
2018-Jul-12 22:00N 42°37' W 070°40'0 0.0
2018-Jul-12 21:30N 42°37' W 070°40'0 0.0
2018-Jul-12 21:00N 42°37' W 070°40'3 6.1
2018-Jul-12 20:30N 42°34' W 070°39'917.8
2018-Jul-12 20:01N 42°28' W 070°30'4 7.1
2018-Jul-12 19:30N 42°25' W 070°27'1 1.8
2018-Jul-12 19:00N 42°24' W 070°26'1 1.3
2018-Jul-12 18:30N 42°25' W 070°27'917.2
2018-Jul-12 18:00N 42°32' W 070°34'713.3
2018-Jul-12 17:30N 42°37' W 070°40'0 0.1
2018-Jul-12 17:00N 42°37' W 070°40'0 0.0
2018-Jul-12 16:30N 42°37' W 070°40'0 0.0
2018-Jul-12 16:00N 42°37' W 070°40'1 1.0
2018-Jul-12 15:30N 42°36' W 070°40'714.2
2018-Jul-12 15:00N 42°30' W 070°34'2 4.4
2018-Jul-12 14:30N 42°29' W 070°32'1 1.8
2018-Jul-12 14:00N 42°28' W 070°32'1 2.8
2018-Jul-12 13:30N 42°27' W 070°31'510.0
2018-Jul-12 13:01N 42°31' W 070°35'713.8
2018-Jul-12 12:30N 42°37' W 070°40'0 0.0
2018-Jul-12 12:00N 42°37' W 070°40'0 0.0
2018-Jul-12 11:30N 42°37' W 070°40'0 0.0
2018-Jul-12 11:00N 42°37' W 070°40'0 0.0
2018-Jul-12 10:30N 42°37' W 070°40'0 0.0
2018-Jul-12 10:00N 42°37' W 070°40'0 0.0
2018-Jul-12 09:31N 42°37' W 070°40'0 0.0
2018-Jul-12 09:00N 42°37' W 070°40'0 0.0
2018-Jul-12 08:30N 42°37' W 070°40'0 0.0
2018-Jul-12 08:00N 42°37' W 070°40'0 0.0
2018-Jul-12 07:31N 42°37' W 070°40'0 0.0
2018-Jul-12 07:00N 42°37' W 070°40'0 0.0
2018-Jul-12 06:30N 42°37' W 070°40'0 0.0
2018-Jul-12 06:00N 42°37' W 070°40'0 0.0
2018-Jul-12 05:30N 42°37' W 070°40'0 0.0
2018-Jul-12 05:01N 42°37' W 070°40'0 0.0
2018-Jul-12 04:30N 42°37' W 070°40'0 0.0
2018-Jul-12 04:00N 42°37' W 070°40'0 0.0
2018-Jul-12 03:30N 42°37' W 070°40'0 0.0
2018-Jul-12 03:00N 42°37' W 070°40'0 0.0
2018-Jul-12 02:30N 42°37' W 070°40'0 0.0
2018-Jul-12 02:00N 42°37' W 070°40'0 0.0
2018-Jul-12 01:30N 42°37' W 070°40'0 0.0
2018-Jul-12 01:00N 42°37' W 070°40'0 0.0
2018-Jul-12 00:30N 42°37' W 070°40'0 0.0
2018-Jul-12 00:00N 42°37' W 070°40'0 0.0
2018-Jul-11 23:30N 42°37' W 070°40'0 0.0
2018-Jul-11 23:00N 42°37' W 070°40'0 0.0
2018-Jul-11 22:30N 42°37' W 070°40'0 0.0
2018-Jul-11 22:00N 42°37' W 070°40'0 0.0
2018-Jul-11 21:30N 42°37' W 070°40'0 0.0
2018-Jul-11 21:01N 42°37' W 070°40'1 2.1
2018-Jul-11 20:30N 42°36' W 070°40'917.3
2018-Jul-11 20:00N 42°29' W 070°34'713.3
2018-Jul-11 19:30N 42°24' W 070°27'1 2.6
2018-Jul-11 19:00N 42°25' W 070°28'4 8.3
2018-Jul-11 18:30N 42°28' W 070°32'3 6.4
2018-Jul-11 18:00N 42°30' W 070°35'714.4
2018-Jul-11 17:30N 42°37' W 070°40'0 0.0
2018-Jul-11 17:00N 42°37' W 070°40'0 0.0
2018-Jul-11 16:30N 42°37' W 070°40'0 0.0
2018-Jul-11 16:00N 42°37' W 070°40'1 2.8
2018-Jul-11 15:30N 42°35' W 070°40'917.5
2018-Jul-11 15:00N 42°29' W 070°32'713.7
2018-Jul-11 14:30N 42°25' W 070°25'0 0.7
2018-Jul-11 14:00N 42°24' W 070°25'2 4.2
2018-Jul-11 13:31N 42°25' W 070°27'816.5
2018-Jul-11 13:01N 42°31' W 070°35'713.1
2018-Jul-11 12:30N 42°37' W 070°40'0 0.0
2018-Jul-11 12:01N 42°37' W 070°40'0 0.0
2018-Jul-11 11:31N 42°37' W 070°40'0 0.0
2018-Jul-11 11:00N 42°37' W 070°40'0 0.0
2018-Jul-11 10:31N 42°37' W 070°40'0 0.0
2018-Jul-11 10:01N 42°37' W 070°40'0 0.0
2018-Jul-11 09:30N 42°37' W 070°40'0 0.0
2018-Jul-11 09:01N 42°37' W 070°40'  

Dump ship's entire track history